createdAt,value
2022-12-19T00:01:49.076Z,10.20
2022-12-19T00:04:19.977Z,10.20
2022-12-19T00:06:47.421Z,10.17
2022-12-19T00:09:14.666Z,10.16
2022-12-19T00:11:41.966Z,10.17
2022-12-19T00:14:11.786Z,10.14
2022-12-19T00:16:39.404Z,10.17
2022-12-19T00:19:07.356Z,10.14
2022-12-19T00:21:35.650Z,10.18
2022-12-19T00:24:08.670Z,10.20
2022-12-19T00:26:49.305Z,10.12
2022-12-19T00:29:17.283Z,10.17
2022-12-19T00:31:45.084Z,10.13
2022-12-19T00:34:15.845Z,10.11
2022-12-19T00:36:43.367Z,10.11
2022-12-19T00:39:11.864Z,10.16
2022-12-19T00:41:41.799Z,10.08
2022-12-19T00:44:13.860Z,10.04
2022-12-19T00:46:41.880Z,10.05
2022-12-19T00:49:09.261Z,10.08
2022-12-19T00:51:37.644Z,10.07
2022-12-19T00:54:09.863Z,10.05
2022-12-19T00:56:38.435Z,10.04
2022-12-19T00:59:10.750Z,9.99
2022-12-19T01:01:41.532Z,10.03
2022-12-19T01:04:30.689Z,10.06
2022-12-19T01:07:01.857Z,10.03
2022-12-19T01:09:35.335Z,9.99
2022-12-19T01:12:24.635Z,9.94
2022-12-19T01:15:03.779Z,10.02
2022-12-19T01:17:44.417Z,9.99
2022-12-19T01:20:15.880Z,9.99
2022-12-19T01:22:44.487Z,9.86
2022-12-19T01:25:14.563Z,9.89
2022-12-19T01:27:42.391Z,9.91
2022-12-19T01:30:10.806Z,9.93
2022-12-19T01:32:39.175Z,9.87
2022-12-19T01:35:06.843Z,9.87
2022-12-19T01:37:38.568Z,9.89
2022-12-19T01:40:06.782Z,9.83
2022-12-19T01:42:36.749Z,9.83
2022-12-19T01:45:05.322Z,9.95
2022-12-19T01:47:41.293Z,9.97
2022-12-19T01:50:14.097Z,9.96
2022-12-19T01:52:42.700Z,9.92
2022-12-19T01:55:11.396Z,9.90
2022-12-19T01:57:39.278Z,9.88
2022-12-19T02:00:10.028Z,9.85
2022-12-19T02:02:57.197Z,9.94
2022-12-19T02:05:25.061Z,9.87
2022-12-19T02:07:54.322Z,9.87
2022-12-19T02:10:22.004Z,9.89
2022-12-19T02:12:50.104Z,9.79
2022-12-19T02:15:18.379Z,9.83
2022-12-19T02:18:07.944Z,9.83
2022-12-19T02:20:54.271Z,9.80
2022-12-19T02:24:09.354Z,9.84
2022-12-19T02:27:11.815Z,9.86
2022-12-19T02:30:05.628Z,9.77
2022-12-19T02:33:03.565Z,9.81
2022-12-19T02:35:37.827Z,9.79
2022-12-19T02:38:16.757Z,9.80
2022-12-19T02:41:15.673Z,9.79
2022-12-19T02:43:53.020Z,9.80
2022-12-19T02:46:28.626Z,9.75
2022-12-19T02:48:57.211Z,9.75
2022-12-19T02:51:24.824Z,9.77
2022-12-19T02:53:52.364Z,9.72
2022-12-19T02:56:43.951Z,9.72
2022-12-19T02:59:53.408Z,9.63
2022-12-19T03:02:33.330Z,9.64
2022-12-19T03:05:12.862Z,9.60
2022-12-19T03:07:46.287Z,9.65
2022-12-19T03:10:29.453Z,9.65
2022-12-19T03:13:04.024Z,9.57
2022-12-19T03:15:32.476Z,9.64
2022-12-19T03:18:01.741Z,9.66
2022-12-19T03:20:39.806Z,9.66
2022-12-19T03:23:07.436Z,9.57
2022-12-19T03:25:35.870Z,9.69
2022-12-19T03:28:09.155Z,9.61
2022-12-19T03:30:39.874Z,9.58
2022-12-19T03:33:10.173Z,9.56
2022-12-19T03:35:39.984Z,9.58
2022-12-19T03:38:10.230Z,9.60
2022-12-19T03:40:42.890Z,9.61
2022-12-19T03:43:12.727Z,9.61
2022-12-19T03:45:44.812Z,9.62
2022-12-19T03:48:27.880Z,9.65
2022-12-19T03:51:01.418Z,9.70
2022-12-19T03:53:35.113Z,9.75
2022-12-19T03:56:16.596Z,9.75
2022-12-19T03:58:51.959Z,9.68
2022-12-19T04:01:21.691Z,9.72
2022-12-19T04:03:50.999Z,9.69
2022-12-19T04:06:18.978Z,9.71
2022-12-19T04:08:47.273Z,9.68
2022-12-19T04:11:20.124Z,9.61
2022-12-19T04:13:58.015Z,9.62
2022-12-19T04:16:39.355Z,9.66
2022-12-19T04:19:22.194Z,9.67
2022-12-19T04:22:00.355Z,9.63
2022-12-19T04:24:33.319Z,9.60
2022-12-19T04:27:03.708Z,9.59
2022-12-19T04:29:34.347Z,9.61
2022-12-19T04:32:04.351Z,9.70
2022-12-19T04:34:32.051Z,9.61
2022-12-19T04:37:02.541Z,9.57
2022-12-19T04:39:30.109Z,9.59
2022-12-19T04:41:57.567Z,9.64
2022-12-19T04:44:24.910Z,9.60
2022-12-19T04:46:52.326Z,9.62
2022-12-19T04:49:19.695Z,9.65
2022-12-19T04:51:47.096Z,9.61
2022-12-19T04:54:14.408Z,9.55
2022-12-19T04:56:41.997Z,9.43
2022-12-19T04:59:10.104Z,9.50
2022-12-19T05:01:37.912Z,9.49
2022-12-19T05:04:05.450Z,9.57
2022-12-19T05:06:33.037Z,9.50
2022-12-19T05:09:00.756Z,9.55
2022-12-19T05:11:28.358Z,9.58
2022-12-19T05:13:55.696Z,9.56
2022-12-19T05:16:23.006Z,9.51
2022-12-19T05:18:50.199Z,9.57
2022-12-19T05:21:17.627Z,9.58
2022-12-19T05:23:44.901Z,9.57
2022-12-19T05:26:12.197Z,9.50
2022-12-19T05:28:39.883Z,9.45
2022-12-19T05:31:11.046Z,9.41
2022-12-19T05:33:39.597Z,9.56
2022-12-19T05:36:08.576Z,9.45
2022-12-19T05:38:36.646Z,9.56
2022-12-19T05:41:09.167Z,9.52
2022-12-19T05:43:37.267Z,9.59
2022-12-19T05:46:05.853Z,9.58
2022-12-19T05:48:33.526Z,9.51
2022-12-19T05:51:01.172Z,9.58
2022-12-19T05:53:28.922Z,9.55
2022-12-19T05:56:04.590Z,9.56
2022-12-19T05:58:32.361Z,9.57
2022-12-19T06:01:09.887Z,9.48
2022-12-19T06:03:37.905Z,9.47
2022-12-19T06:06:08.991Z,9.49
2022-12-19T06:08:36.494Z,9.52
2022-12-19T06:11:04.980Z,9.47
2022-12-19T06:13:32.996Z,9.42
2022-12-19T06:16:06.752Z,9.46
2022-12-19T06:18:35.056Z,9.56
2022-12-19T06:21:05.301Z,9.52
2022-12-19T06:23:36.528Z,9.60
2022-12-19T06:26:06.684Z,9.54
2022-12-19T06:28:34.651Z,9.57
2022-12-19T06:31:05.333Z,9.57
2022-12-19T06:33:35.277Z,9.56
2022-12-19T06:36:16.500Z,9.51
2022-12-19T06:38:44.072Z,9.60
2022-12-19T06:41:30.564Z,9.62
2022-12-19T06:43:59.431Z,9.63
2022-12-19T06:46:27.142Z,9.61
2022-12-19T06:48:54.610Z,9.62
2022-12-19T06:51:22.385Z,9.61
2022-12-19T06:53:50.363Z,9.61
2022-12-19T06:56:19.148Z,9.59
2022-12-19T06:58:46.898Z,9.60
2022-12-19T07:01:31.059Z,9.62
2022-12-19T07:03:59.354Z,9.62
2022-12-19T07:06:26.798Z,9.64
2022-12-19T07:08:54.359Z,9.70
2022-12-19T07:11:21.759Z,9.63
2022-12-19T07:13:49.119Z,9.65
2022-12-19T07:16:16.639Z,9.72
2022-12-19T07:18:44.726Z,9.68
2022-12-19T07:21:12.346Z,9.72
2022-12-19T07:23:40.709Z,9.74
2022-12-19T07:26:08.480Z,9.72
2022-12-19T07:28:37.920Z,9.73
2022-12-19T07:31:05.548Z,9.77
2022-12-19T07:33:33.782Z,9.85
2022-12-19T07:36:02.443Z,9.79
2022-12-19T07:38:29.771Z,9.79
2022-12-19T07:41:01.279Z,9.82
2022-12-19T07:43:28.938Z,9.77
2022-12-19T07:45:56.792Z,9.83
2022-12-19T07:48:24.532Z,9.91
2022-12-19T07:50:51.959Z,9.92
2022-12-19T07:53:19.391Z,9.92
2022-12-19T07:55:50.166Z,9.98
2022-12-19T07:58:17.868Z,10.03
2022-12-19T08:00:45.468Z,10.04
2022-12-19T08:03:12.994Z,10.02
2022-12-19T08:05:40.251Z,9.98
2022-12-19T08:08:08.975Z,9.98
2022-12-19T08:10:36.832Z,10.00
2022-12-19T08:13:04.289Z,10.07
2022-12-19T08:15:31.623Z,10.07
2022-12-19T08:17:59.257Z,10.10
2022-12-19T08:20:26.741Z,10.05
2022-12-19T08:22:54.296Z,10.00
2022-12-19T08:25:22.174Z,10.01
2022-12-19T08:27:49.743Z,10.09
2022-12-19T08:30:17.105Z,10.12
2022-12-19T08:32:45.350Z,10.15
2022-12-19T08:35:13.040Z,10.04
2022-12-19T08:37:40.505Z,10.05
2022-12-19T08:40:08.325Z,10.10
2022-12-19T08:42:35.827Z,10.06
2022-12-19T08:45:04.731Z,10.12
2022-12-19T08:47:32.208Z,10.05
2022-12-19T08:49:59.477Z,10.07
2022-12-19T08:52:27.427Z,10.14
2022-12-19T08:54:54.992Z,10.07
2022-12-19T08:57:22.583Z,10.11
2022-12-19T08:59:50.077Z,10.13
2022-12-19T09:02:19.046Z,10.17
2022-12-19T09:06:02.217Z,10.16
2022-12-19T09:07:38.532Z,10.25
2022-12-19T09:10:08.041Z,10.22
2022-12-19T09:12:35.525Z,10.18
2022-12-19T09:15:03.194Z,10.24
2022-12-19T09:17:30.713Z,10.21
2022-12-19T09:19:58.719Z,10.20
2022-12-19T09:22:29.295Z,10.11
2022-12-19T09:24:57.379Z,10.21
2022-12-19T09:27:24.830Z,10.20
2022-12-19T09:29:52.429Z,10.26
2022-12-19T09:32:19.785Z,10.24
2022-12-19T09:34:47.474Z,10.30
2022-12-19T09:37:17.717Z,10.28
2022-12-19T09:39:46.901Z,10.29
2022-12-19T09:42:40.477Z,10.27
2022-12-19T09:45:31.939Z,10.36
2022-12-19T09:48:01.617Z,10.29
2022-12-19T09:50:44.200Z,10.30
2022-12-19T09:53:35.087Z,10.37
2022-12-19T09:56:02.986Z,10.32
2022-12-19T09:58:30.356Z,10.39
2022-12-19T10:01:00.115Z,10.45
2022-12-19T10:03:40.238Z,10.41
2022-12-19T10:07:08.710Z,10.41
2022-12-19T10:10:45.288Z,10.49
2022-12-19T10:12:51.066Z,10.48
2022-12-19T10:15:47.264Z,10.47
2022-12-19T10:18:56.422Z,10.62
2022-12-19T10:22:16.466Z,10.60
2022-12-19T10:25:08.070Z,10.67
2022-12-19T10:27:58.771Z,10.73
2022-12-19T10:30:32.471Z,10.76
2022-12-19T10:33:02.603Z,10.73
2022-12-19T10:35:43.378Z,10.80
2022-12-19T10:38:19.786Z,10.85
2022-12-19T10:40:53.878Z,10.90
2022-12-19T10:43:40.790Z,10.92
2022-12-19T10:46:42.793Z,10.94
2022-12-19T10:49:14.624Z,11.00
2022-12-19T10:51:42.836Z,11.02
2022-12-19T10:54:10.399Z,11.07
2022-12-19T10:56:38.276Z,11.16
2022-12-19T10:59:19.938Z,11.14
2022-12-19T11:01:51.716Z,11.11
2022-12-19T11:04:33.354Z,11.13
2022-12-19T11:07:02.471Z,11.12
2022-12-19T11:09:35.916Z,11.16
2022-12-19T11:16:14.620Z,11.21
2022-12-19T11:20:36.685Z,11.19
2022-12-19T11:27:14.279Z,11.20
2022-12-19T11:29:42.672Z,11.23
2022-12-19T11:30:36.948Z,11.30
2022-12-19T11:30:58.886Z,11.29
2022-12-19T11:32:45.026Z,11.56
2022-12-19T11:35:24.902Z,11.68
2022-12-19T11:37:58.533Z,11.75
2022-12-19T11:40:59.256Z,11.79
2022-12-19T11:43:59.138Z,11.88
2022-12-19T11:47:09.079Z,11.99
2022-12-19T11:49:42.466Z,12.03
2022-12-19T11:53:02.818Z,12.06
2022-12-19T11:55:42.290Z,12.09
2022-12-19T11:58:11.720Z,12.07
2022-12-19T12:01:02.137Z,12.03
2022-12-19T12:04:01.942Z,11.97
2022-12-19T12:06:34.623Z,12.02
2022-12-19T12:11:41.480Z,12.03
2022-12-19T12:18:41.624Z,11.95
2022-12-19T12:27:48.181Z,11.97
2022-12-19T12:30:39.058Z,11.97
2022-12-19T12:31:08.849Z,12.00
2022-12-19T12:31:44.254Z,12.03
2022-12-19T12:31:47.725Z,12.01
2022-12-19T12:35:32.948Z,12.18
2022-12-19T12:38:24.670Z,12.28
2022-12-19T12:41:43.604Z,12.34
2022-12-19T12:44:12.526Z,12.37
2022-12-19T12:46:46.564Z,12.37
2022-12-19T12:49:38.235Z,12.34
2022-12-19T12:52:09.318Z,12.34
2022-12-19T12:54:41.822Z,12.35
2022-12-19T12:57:19.734Z,12.40
2022-12-19T12:59:48.419Z,12.41
2022-12-19T13:02:24.849Z,12.39
2022-12-19T13:04:59.785Z,12.42
2022-12-19T13:07:41.715Z,12.45
2022-12-19T13:10:19.123Z,12.52
2022-12-19T13:13:01.549Z,12.57
2022-12-19T13:15:37.567Z,12.57
2022-12-19T13:18:30.083Z,12.57
2022-12-19T13:20:59.195Z,12.64
2022-12-19T13:23:26.564Z,12.71
2022-12-19T13:25:54.654Z,12.82
2022-12-19T13:28:22.140Z,12.91
2022-12-19T13:31:21.472Z,13.06
2022-12-19T13:33:55.664Z,13.16
2022-12-19T13:40:01.457Z,13.19
2022-12-19T13:40:11.971Z,13.23
2022-12-19T13:43:26.116Z,13.25
2022-12-19T13:45:59.370Z,13.26
2022-12-19T13:48:37.563Z,13.24
2022-12-19T13:51:08.421Z,13.20
2022-12-19T13:53:37.150Z,13.18
2022-12-19T13:56:11.993Z,13.19
2022-12-19T13:58:48.731Z,13.22
2022-12-19T14:01:23.534Z,13.23
2022-12-19T14:03:54.599Z,13.27
2022-12-19T14:06:31.442Z,13.26
2022-12-19T14:11:24.946Z,13.36
2022-12-19T14:13:43.260Z,13.38
2022-12-19T14:15:12.879Z,13.45
2022-12-19T14:17:47.488Z,13.43
2022-12-19T14:22:02.760Z,13.45
2022-12-19T14:23:10.693Z,13.46
2022-12-19T14:28:21.682Z,13.44
2022-12-19T14:28:55.416Z,13.44
2022-12-19T14:31:25.034Z,13.41
2022-12-19T14:34:18.377Z,13.45
2022-12-19T14:36:49.709Z,13.39
2022-12-19T14:39:22.153Z,13.40
2022-12-19T14:43:58.007Z,13.46
2022-12-19T14:52:50.829Z,13.53
2022-12-19T14:54:01.590Z,13.55
2022-12-19T14:54:24.629Z,13.55
2022-12-19T14:57:02.280Z,13.58
2022-12-19T14:59:42.370Z,13.63
2022-12-19T15:02:10.304Z,13.63
2022-12-19T15:04:52.889Z,13.59
2022-12-19T15:07:25.863Z,13.58
2022-12-19T15:11:08.136Z,13.59
2022-12-19T15:14:53.479Z,13.49
2022-12-19T15:16:04.797Z,13.50
2022-12-19T15:18:32.321Z,13.47
2022-12-19T15:21:08.232Z,13.52
2022-12-19T15:23:35.930Z,13.49
2022-12-19T15:26:08.238Z,13.50
2022-12-19T15:28:51.067Z,13.47
2022-12-19T15:31:34.622Z,13.44
2022-12-19T15:34:34.278Z,13.55
2022-12-19T15:36:59.995Z,13.51
2022-12-19T15:39:29.849Z,13.48
2022-12-19T15:41:59.540Z,13.45
2022-12-19T15:44:41.049Z,13.47
2022-12-19T15:47:22.283Z,13.45
2022-12-19T15:49:49.809Z,13.39
2022-12-19T15:52:19.184Z,13.39
2022-12-19T15:54:49.820Z,13.38
2022-12-19T15:58:00.861Z,13.30
2022-12-19T16:00:32.594Z,13.27
2022-12-19T16:05:48.678Z,13.23
2022-12-19T16:08:19.212Z,13.20
2022-12-19T16:10:56.030Z,13.26
2022-12-19T16:13:34.273Z,13.29
2022-12-19T16:16:10.788Z,13.22
2022-12-19T16:18:40.730Z,13.21
2022-12-19T16:21:22.588Z,13.24
2022-12-19T16:23:52.504Z,13.20
2022-12-19T16:26:31.669Z,13.15
2022-12-19T16:28:59.973Z,13.12
2022-12-19T16:31:28.115Z,13.16
2022-12-19T16:33:55.727Z,13.25
2022-12-19T16:36:23.120Z,13.25
2022-12-19T16:38:50.719Z,13.14
2022-12-19T16:41:21.920Z,13.14
2022-12-19T16:43:50.061Z,13.15
2022-12-19T16:46:23.743Z,13.16
2022-12-19T16:48:51.575Z,13.14
2022-12-19T16:51:22.312Z,13.10
2022-12-19T16:53:51.865Z,13.09
2022-12-19T16:56:39.067Z,13.11
2022-12-19T16:59:15.506Z,13.07
2022-12-19T17:01:45.137Z,13.01
2022-12-19T17:04:18.700Z,12.95
2022-12-19T17:06:46.573Z,12.97
2022-12-19T17:09:15.973Z,12.92
2022-12-19T17:11:53.805Z,12.91
2022-12-19T17:14:23.629Z,12.99
2022-12-19T17:16:55.176Z,13.00
2022-12-19T17:19:26.226Z,12.98
2022-12-19T17:21:53.720Z,12.96
2022-12-19T17:24:21.307Z,12.96
2022-12-19T17:26:49.067Z,12.97
2022-12-19T17:29:16.589Z,12.97
2022-12-19T17:31:44.345Z,13.06
2022-12-19T17:34:24.775Z,13.06
2022-12-19T17:36:52.424Z,13.08
2022-12-19T17:39:25.594Z,13.07
2022-12-19T17:41:59.464Z,13.06
2022-12-19T17:44:27.192Z,13.09
2022-12-19T17:46:54.629Z,13.16
2022-12-19T17:49:28.240Z,13.12
2022-12-19T17:51:56.890Z,13.06
2022-12-19T17:54:25.947Z,13.03
2022-12-19T17:56:54.692Z,13.02
2022-12-19T17:59:22.100Z,12.97
2022-12-19T18:01:49.868Z,12.95
2022-12-19T18:04:19.850Z,12.88
2022-12-19T18:06:49.279Z,12.87
2022-12-19T18:09:25.016Z,12.82
2022-12-19T18:11:53.174Z,12.84
2022-12-19T18:14:21.448Z,12.80
2022-12-19T18:16:50.767Z,12.78
2022-12-19T18:19:21.486Z,12.74
2022-12-19T18:21:49.546Z,12.76
2022-12-19T18:24:17.883Z,12.71
2022-12-19T18:26:45.674Z,12.66
2022-12-19T18:29:13.451Z,12.72
2022-12-19T18:31:46.495Z,12.76
2022-12-19T18:34:24.048Z,12.73
2022-12-19T18:36:53.111Z,12.69
2022-12-19T18:39:29.179Z,12.69
2022-12-19T18:41:56.826Z,12.69
2022-12-19T18:44:24.206Z,12.80
2022-12-19T18:46:52.924Z,12.75
2022-12-19T18:49:21.079Z,12.75
2022-12-19T18:51:48.997Z,12.80
2022-12-19T18:54:22.311Z,12.77
2022-12-19T18:56:50.135Z,12.78
2022-12-19T18:59:17.606Z,12.77
2022-12-19T19:01:47.265Z,12.84
2022-12-19T19:04:18.083Z,12.83
2022-12-19T19:06:51.694Z,12.73
2022-12-19T19:09:21.069Z,12.70
2022-12-19T19:12:08.747Z,12.73
2022-12-19T19:14:36.224Z,12.71
2022-12-19T19:17:04.592Z,12.76
2022-12-19T19:19:32.137Z,12.78
2022-12-19T19:21:59.591Z,12.83
2022-12-19T19:24:27.263Z,12.87
2022-12-19T19:26:54.937Z,12.94
2022-12-19T19:29:22.834Z,12.87
2022-12-19T19:31:52.240Z,12.93
2022-12-19T19:34:29.886Z,12.94
2022-12-19T19:37:01.636Z,12.99
2022-12-19T19:39:33.056Z,12.93
2022-12-19T19:42:01.368Z,12.94
2022-12-19T19:44:29.994Z,12.95
2022-12-19T19:46:57.605Z,12.98
2022-12-19T19:49:25.644Z,12.96
2022-12-19T19:51:57.012Z,12.98
2022-12-19T19:54:27.990Z,13.02
2022-12-19T19:56:55.486Z,13.05
2022-12-19T19:59:22.974Z,13.02
2022-12-19T20:01:54.501Z,13.03
2022-12-19T20:04:22.322Z,12.93
2022-12-19T20:06:49.765Z,12.94
2022-12-19T20:09:17.472Z,12.86
2022-12-19T20:11:45.242Z,12.89
2022-12-19T20:14:13.361Z,12.92
2022-12-19T20:16:40.952Z,12.89
2022-12-19T20:19:08.554Z,12.86
2022-12-19T20:21:36.015Z,12.88
2022-12-19T20:24:03.843Z,12.86
2022-12-19T20:26:31.359Z,12.89
2022-12-19T20:28:58.853Z,12.96
2022-12-19T20:31:26.776Z,12.99
2022-12-19T20:33:56.014Z,12.97
2022-12-19T20:36:24.005Z,12.94
2022-12-19T20:38:51.998Z,12.98
2022-12-19T20:41:19.570Z,12.99
2022-12-19T20:43:48.322Z,12.99
2022-12-19T20:46:19.134Z,12.98
2022-12-19T20:48:47.788Z,12.99
2022-12-19T20:51:16.575Z,12.99
2022-12-19T20:53:45.620Z,13.06
2022-12-19T20:56:15.542Z,13.05
2022-12-19T20:58:43.515Z,13.08
2022-12-19T21:01:15.714Z,13.02
2022-12-19T21:03:43.886Z,13.07
2022-12-19T21:06:13.767Z,13.02
2022-12-19T21:08:42.354Z,13.06
2022-12-19T21:11:10.629Z,13.12
2022-12-19T21:13:39.184Z,13.14
2022-12-19T21:16:09.983Z,13.16
2022-12-19T21:18:39.615Z,13.15
2022-12-19T21:21:09.512Z,13.07
2022-12-19T21:23:38.240Z,13.07
2022-12-19T21:26:06.270Z,13.08
2022-12-19T21:28:34.667Z,13.01
2022-12-19T21:31:17.392Z,13.02
2022-12-19T21:33:46.438Z,13.04
2022-12-19T21:36:20.443Z,12.96
2022-12-19T21:38:49.703Z,12.96
2022-12-19T21:41:19.399Z,12.96
2022-12-19T21:43:49.152Z,12.92
2022-12-19T21:46:17.491Z,12.84
2022-12-19T21:48:48.038Z,12.91
2022-12-19T21:51:17.195Z,12.89
2022-12-19T21:53:44.993Z,12.81
2022-12-19T21:56:21.749Z,12.80
2022-12-19T21:58:52.007Z,12.82
2022-12-19T22:01:20.646Z,12.80
2022-12-19T22:03:48.686Z,12.75
2022-12-19T22:06:27.063Z,12.65
2022-12-19T22:08:56.757Z,12.72
2022-12-19T22:11:25.326Z,12.71
2022-12-19T22:13:53.565Z,12.74
2022-12-19T22:16:21.208Z,12.68
2022-12-19T22:18:51.329Z,12.63
2022-12-19T22:21:19.996Z,12.64
2022-12-19T22:23:47.818Z,12.64
2022-12-19T22:26:22.957Z,12.65
2022-12-19T22:28:53.466Z,12.62
2022-12-19T22:31:33.291Z,12.64
2022-12-19T22:34:10.615Z,12.61
2022-12-19T22:36:40.305Z,12.56
2022-12-19T22:39:11.627Z,12.52
2022-12-19T22:41:40.215Z,12.43
2022-12-19T22:44:15.024Z,12.49
2022-12-19T22:46:42.780Z,12.48
2022-12-19T22:49:11.660Z,12.42
2022-12-19T22:51:39.935Z,12.36
2022-12-19T22:54:07.621Z,12.38
2022-12-19T22:56:36.053Z,12.37
2022-12-19T22:59:06.178Z,12.36
2022-12-19T23:01:40.810Z,12.27
2022-12-19T23:04:10.916Z,12.35
2022-12-19T23:06:39.145Z,12.32
2022-12-19T23:09:08.560Z,12.30
2022-12-19T23:11:38.983Z,12.22
2022-12-19T23:14:08.699Z,12.30
2022-12-19T23:16:36.207Z,12.24
2022-12-19T23:19:05.147Z,12.21
2022-12-19T23:21:32.871Z,12.15
2022-12-19T23:24:00.671Z,12.16
2022-12-19T23:26:32.091Z,12.11
2022-12-19T23:29:02.230Z,12.01
2022-12-19T23:31:30.318Z,12.06
2022-12-19T23:33:59.274Z,11.96
2022-12-19T23:37:00.935Z,12.00
2022-12-19T23:39:15.763Z,11.98
2022-12-19T23:41:43.186Z,11.98
2022-12-19T23:44:11.026Z,11.89
2022-12-19T23:46:38.667Z,11.89
2022-12-19T23:49:06.093Z,11.84
2022-12-19T23:51:33.341Z,11.83
2022-12-19T23:54:00.714Z,11.87
2022-12-19T23:56:29.850Z,11.81
2022-12-19T23:58:58.321Z,11.79
